createdAt,value
2022-11-02T00:01:42.467Z,9.80
2022-11-02T00:04:15.515Z,9.70
2022-11-02T00:06:47.674Z,9.60
2022-11-02T00:09:19.601Z,9.50
2022-11-02T00:11:51.553Z,9.50
2022-11-02T00:14:23.539Z,9.40
2022-11-02T00:16:55.535Z,9.30
2022-11-02T00:19:27.661Z,9.30
2022-11-02T00:22:01.930Z,9.20
2022-11-02T00:24:35.436Z,9.20
2022-11-02T00:27:07.749Z,9.20
2022-11-02T00:29:39.814Z,9.10
2022-11-02T00:32:11.969Z,9.10
2022-11-02T00:34:44.013Z,9.10
2022-11-02T00:37:15.970Z,9.00
2022-11-02T00:39:48.248Z,9.00
2022-11-02T00:42:20.356Z,8.90
2022-11-02T00:44:52.292Z,8.90
2022-11-02T00:47:24.371Z,8.90
2022-11-02T00:49:56.270Z,8.90
2022-11-02T00:53:25.181Z,8.90
2022-11-02T00:56:06.775Z,8.80
2022-11-02T00:58:38.953Z,8.80
2022-11-02T01:01:11.034Z,8.80
2022-11-02T01:03:43.125Z,8.80
2022-11-02T01:06:15.859Z,8.80
2022-11-02T01:08:47.905Z,8.80
2022-11-02T01:11:23.018Z,8.80
2022-11-02T01:13:55.380Z,8.90
2022-11-02T01:16:27.436Z,8.90
2022-11-02T01:19:00.142Z,8.90
2022-11-02T01:21:32.096Z,9.00
2022-11-02T01:24:04.339Z,9.00
2022-11-02T01:26:36.855Z,9.10
2022-11-02T01:29:08.955Z,9.10
2022-11-02T01:31:41.008Z,9.20
2022-11-02T01:34:12.985Z,9.20
2022-11-02T01:36:48.905Z,9.20
2022-11-02T01:39:21.196Z,9.20
2022-11-02T01:41:53.907Z,9.20
2022-11-02T01:44:34.403Z,9.20
2022-11-02T01:47:11.623Z,9.20
2022-11-02T01:50:17.630Z,9.20
2022-11-02T01:53:42.965Z,9.20
2022-11-02T01:56:20.710Z,9.20
2022-11-02T01:59:01.745Z,9.20
2022-11-02T02:01:39.401Z,9.20
2022-11-02T02:04:12.809Z,9.20
2022-11-02T02:06:45.520Z,9.20
2022-11-02T02:09:19.553Z,9.10
2022-11-02T02:11:52.128Z,9.20
2022-11-02T02:14:24.975Z,9.20
2022-11-02T02:17:12.057Z,9.10
2022-11-02T02:20:16.515Z,9.20
2022-11-02T02:23:26.767Z,9.20
2022-11-02T02:26:31.612Z,9.20
2022-11-02T02:29:46.512Z,9.20
2022-11-02T02:33:03.289Z,9.10
2022-11-02T02:36:17.289Z,9.10
2022-11-02T02:39:13.184Z,9.10
2022-11-02T02:42:01.384Z,9.10
2022-11-02T02:44:58.026Z,9.10
2022-11-02T02:48:02.723Z,9.10
2022-11-02T02:50:54.685Z,9.10
2022-11-02T02:53:40.845Z,9.20
2022-11-02T02:56:19.865Z,9.20
2022-11-02T02:58:59.664Z,9.20
2022-11-02T03:01:39.528Z,9.20
2022-11-02T03:04:14.028Z,9.20
2022-11-02T03:07:34.247Z,9.30
2022-11-02T03:10:21.621Z,9.30
2022-11-02T03:13:10.084Z,9.40
2022-11-02T03:16:00.778Z,9.40
2022-11-02T03:18:54.889Z,9.50
2022-11-02T03:21:59.592Z,9.50
2022-11-02T03:25:02.887Z,9.50
2022-11-02T03:28:10.351Z,9.50
2022-11-02T03:30:56.957Z,9.50
2022-11-02T03:33:55.170Z,9.50
2022-11-02T03:36:56.531Z,9.40
2022-11-02T03:39:42.653Z,9.40
2022-11-02T03:42:27.062Z,9.40
2022-11-02T03:45:10.788Z,9.40
2022-11-02T03:47:56.175Z,9.40
2022-11-02T03:50:37.372Z,9.40
2022-11-02T03:53:32.310Z,9.40
2022-11-02T03:56:19.212Z,9.50
2022-11-02T03:58:58.518Z,9.50
2022-11-02T04:01:32.313Z,9.50
2022-11-02T04:04:11.955Z,9.50
2022-11-02T04:06:46.434Z,9.50
2022-11-02T04:09:18.905Z,9.50
2022-11-02T04:12:09.419Z,9.60
2022-11-02T04:15:01.325Z,9.60
2022-11-02T04:17:51.778Z,9.70
2022-11-02T04:20:43.535Z,9.90
2022-11-02T04:23:39.646Z,10.00
2022-11-02T04:26:31.639Z,10.00
2022-11-02T04:29:04.461Z,10.00
2022-11-02T04:31:36.449Z,10.10
2022-11-02T04:34:08.507Z,10.10
2022-11-02T04:36:41.605Z,10.10
2022-11-02T04:39:13.565Z,10.10
2022-11-02T04:41:45.900Z,10.10
2022-11-02T04:44:17.942Z,10.10
2022-11-02T04:46:52.078Z,10.20
2022-11-02T04:49:24.205Z,10.30
2022-11-02T04:51:56.213Z,10.30
2022-11-02T04:54:28.127Z,10.30
2022-11-02T04:57:00.102Z,10.30
2022-11-02T04:59:32.143Z,10.30
2022-11-02T05:02:04.236Z,10.30
2022-11-02T05:04:36.284Z,10.30
2022-11-02T05:07:10.456Z,10.30
2022-11-02T05:09:42.511Z,10.30
2022-11-02T05:12:14.868Z,10.30
2022-11-02T05:14:46.913Z,10.30
2022-11-02T05:17:18.847Z,10.20
2022-11-02T05:19:50.864Z,10.20
2022-11-02T05:22:23.192Z,10.20
2022-11-02T05:24:55.415Z,10.10
2022-11-02T05:27:27.400Z,10.10
2022-11-02T05:30:00.175Z,10.20
2022-11-02T05:32:32.274Z,10.20
2022-11-02T05:35:04.758Z,10.20
2022-11-02T05:37:37.285Z,10.10
2022-11-02T05:40:09.980Z,10.20
2022-11-02T05:42:42.550Z,10.10
2022-11-02T05:45:14.504Z,10.10
2022-11-02T05:47:46.579Z,10.10
2022-11-02T05:50:18.698Z,10.00
2022-11-02T05:52:51.123Z,10.00
2022-11-02T05:55:24.956Z,10.00
2022-11-02T05:57:57.233Z,10.00
2022-11-02T06:00:29.234Z,9.90
2022-11-02T06:03:01.374Z,10.00
2022-11-02T06:05:33.824Z,10.00
2022-11-02T06:08:06.135Z,10.00
2022-11-02T06:10:38.730Z,10.00
2022-11-02T06:13:14.104Z,10.00
2022-11-02T06:15:46.230Z,10.00
2022-11-02T06:18:18.230Z,10.00
2022-11-02T06:20:50.170Z,10.00
2022-11-02T06:23:22.204Z,10.00
2022-11-02T06:25:59.243Z,10.00
2022-11-02T06:28:32.116Z,10.00
2022-11-02T06:31:04.250Z,10.00
2022-11-02T06:33:36.316Z,10.00
2022-11-02T06:36:08.937Z,10.00
2022-11-02T06:38:42.101Z,10.10
2022-11-02T06:41:15.035Z,10.10
2022-11-02T06:43:47.279Z,10.20
2022-11-02T06:46:19.470Z,10.30
2022-11-02T06:48:52.193Z,10.40
2022-11-02T06:51:24.117Z,10.40
2022-11-02T06:53:56.159Z,10.50
2022-11-02T06:56:28.092Z,10.60
2022-11-02T06:59:00.338Z,10.60
2022-11-02T07:01:32.534Z,10.60
2022-11-02T07:04:05.909Z,10.70
2022-11-02T07:06:37.975Z,10.70
2022-11-02T07:09:10.107Z,10.70
2022-11-02T07:11:42.149Z,10.70
2022-11-02T07:14:14.405Z,10.80
2022-11-02T07:17:05.023Z,10.80
2022-11-02T07:19:37.192Z,10.80
2022-11-02T07:22:09.331Z,10.80
2022-11-02T07:24:41.338Z,10.80
2022-11-02T07:27:13.288Z,10.80
2022-11-02T07:29:45.723Z,10.80
2022-11-02T07:32:18.142Z,10.90
2022-11-02T07:34:50.101Z,10.90
2022-11-02T07:37:22.279Z,10.90
2022-11-02T07:39:54.221Z,10.90
2022-11-02T07:42:26.164Z,11.00
2022-11-02T07:44:58.112Z,11.00
2022-11-02T07:47:30.994Z,11.00
2022-11-02T07:50:04.481Z,11.00
2022-11-02T07:52:44.129Z,11.00
2022-11-02T07:55:20.021Z,11.10
2022-11-02T07:58:01.674Z,11.20
2022-11-02T08:00:38.925Z,11.20
2022-11-02T08:03:12.917Z,11.30
2022-11-02T08:05:45.994Z,11.40
2022-11-02T08:08:20.099Z,11.60
2022-11-02T08:10:53.967Z,11.70
2022-11-02T08:13:26.125Z,11.80
2022-11-02T08:15:58.209Z,11.90
2022-11-02T08:18:30.902Z,12.10
2022-11-02T08:21:04.370Z,12.20
2022-11-02T08:23:36.565Z,12.30
2022-11-02T08:26:08.540Z,12.40
2022-11-02T08:28:40.527Z,12.50
2022-11-02T08:31:16.336Z,12.50
2022-11-02T08:33:48.395Z,12.60
2022-11-02T08:36:20.860Z,12.70
2022-11-02T08:38:52.876Z,12.70
2022-11-02T08:41:24.904Z,12.80
2022-11-02T08:43:57.627Z,12.80
2022-11-02T08:46:30.249Z,12.90
2022-11-02T08:49:02.419Z,12.90
2022-11-02T08:51:34.384Z,12.90
2022-11-02T08:54:06.399Z,13.00
2022-11-02T08:56:38.548Z,13.00
2022-11-02T08:59:11.096Z,13.00
2022-11-02T09:01:43.574Z,13.00
2022-11-02T09:04:15.777Z,13.10
2022-11-02T09:06:48.033Z,13.10
2022-11-02T09:09:20.163Z,13.10
2022-11-02T09:11:52.156Z,13.10
2022-11-02T09:14:24.303Z,13.10
2022-11-02T09:16:56.413Z,13.20
2022-11-02T09:19:28.502Z,13.20
2022-11-02T09:22:05.492Z,13.20
2022-11-02T09:24:37.831Z,13.30
2022-11-02T09:27:09.811Z,13.30
2022-11-02T09:29:41.778Z,13.40
2022-11-02T09:32:13.907Z,13.40
2022-11-02T09:34:47.820Z,13.40
2022-11-02T09:37:21.346Z,13.50
2022-11-02T09:39:53.391Z,13.50
2022-11-02T09:43:04.733Z,13.60
2022-11-02T09:45:53.977Z,13.60
2022-11-02T09:48:41.810Z,13.70
2022-11-02T09:51:32.454Z,13.80
2022-11-02T09:54:47.459Z,13.80
2022-11-02T09:57:32.519Z,13.90
2022-11-02T10:00:05.771Z,13.90
2022-11-02T10:03:20.252Z,14.00
2022-11-02T10:06:15.963Z,14.00
2022-11-02T10:08:54.963Z,14.00
2022-11-02T10:11:57.947Z,14.00
2022-11-02T10:14:59.600Z,14.00
2022-11-02T10:17:39.834Z,13.90
2022-11-02T10:20:23.734Z,14.00
2022-11-02T10:23:09.337Z,14.00
2022-11-02T10:25:50.564Z,14.00
2022-11-02T10:28:29.873Z,14.00
2022-11-02T10:31:30.377Z,14.00
2022-11-02T10:34:24.776Z,14.00
2022-11-02T10:37:17.079Z,14.00
2022-11-02T10:40:14.944Z,14.10
2022-11-02T10:43:32.066Z,14.10
2022-11-02T10:46:33.972Z,14.10
2022-11-02T10:49:40.411Z,14.10
2022-11-02T10:52:23.706Z,14.10
2022-11-02T10:54:56.918Z,14.10
2022-11-02T10:57:30.252Z,14.10
2022-11-02T11:00:23.281Z,14.20
2022-11-02T11:03:11.638Z,14.30
2022-11-02T11:06:02.298Z,14.40
2022-11-02T11:08:43.805Z,14.50
2022-11-02T11:11:27.247Z,14.50
2022-11-02T11:20:02.775Z,14.70
2022-11-02T11:23:31.087Z,14.70
2022-11-02T11:26:11.711Z,14.70
2022-11-02T11:29:03.815Z,14.70
2022-11-02T11:31:52.086Z,14.80
2022-11-02T11:34:30.366Z,14.90
2022-11-02T11:37:09.675Z,14.90
2022-11-02T11:39:53.945Z,15.00
2022-11-02T11:42:35.687Z,15.10
2022-11-02T11:45:29.445Z,15.20
2022-11-02T11:48:34.421Z,15.40
2022-11-02T11:51:25.989Z,15.50
2022-11-02T11:54:28.205Z,15.50
2022-11-02T11:57:28.027Z,15.50
2022-11-02T12:00:29.209Z,15.40
2022-11-02T12:03:11.253Z,15.30
2022-11-02T12:05:57.292Z,15.40
2022-11-02T12:09:04.696Z,15.50
2022-11-02T12:12:21.452Z,15.50
2022-11-02T12:15:11.086Z,15.70
2022-11-02T12:18:30.635Z,15.80
2022-11-02T12:21:47.355Z,15.90
2022-11-02T12:24:56.691Z,16.20
2022-11-02T12:27:56.721Z,16.30
2022-11-02T12:31:15.888Z,16.30
2022-11-02T12:34:19.599Z,16.30
2022-11-02T12:40:50.752Z,16.20
2022-11-02T12:43:46.780Z,16.30
2022-11-02T12:46:39.080Z,16.40
2022-11-02T12:49:35.828Z,16.50
2022-11-02T12:52:33.632Z,16.50
2022-11-02T12:55:24.113Z,16.50
2022-11-02T12:58:20.840Z,16.50
2022-11-02T13:01:12.331Z,16.60
2022-11-02T13:04:26.158Z,16.60
2022-11-02T13:07:13.448Z,16.60
2022-11-02T13:10:06.898Z,16.60
2022-11-02T13:12:55.712Z,16.70
2022-11-02T13:15:38.142Z,16.70
2022-11-02T13:18:21.118Z,16.70
2022-11-02T13:21:04.298Z,16.80
2022-11-02T13:23:57.008Z,16.90
2022-11-02T13:26:41.553Z,17.00
2022-11-02T13:29:25.929Z,17.00
2022-11-02T13:32:33.847Z,17.10
2022-11-02T13:35:33.551Z,17.10
2022-11-02T13:38:27.969Z,17.10
2022-11-02T13:41:14.843Z,17.10
2022-11-02T13:44:44.049Z,17.10
2022-11-02T13:47:50.775Z,17.00
2022-11-02T13:50:49.022Z,17.00
2022-11-02T13:53:33.717Z,16.90
2022-11-02T13:56:21.037Z,16.80
2022-11-02T13:59:04.016Z,16.70
2022-11-02T14:01:40.919Z,16.60
2022-11-02T14:04:16.589Z,16.50
2022-11-02T14:07:04.879Z,16.40
2022-11-02T14:09:47.671Z,16.30
2022-11-02T14:12:23.656Z,16.20
2022-11-02T14:15:13.361Z,16.10
2022-11-02T14:18:25.992Z,16.00
2022-11-02T14:21:41.095Z,15.90
2022-11-02T14:24:32.894Z,15.80
2022-11-02T14:27:24.667Z,15.80
2022-11-02T14:29:59.278Z,15.70
2022-11-02T14:32:40.999Z,15.70
2022-11-02T14:35:40.865Z,15.60
2022-11-02T14:39:00.347Z,15.50
2022-11-02T14:41:42.425Z,15.40
2022-11-02T14:44:57.248Z,15.40
2022-11-02T14:47:39.164Z,15.30
2022-11-02T14:50:11.227Z,15.20
2022-11-02T14:53:03.936Z,15.20
2022-11-02T14:55:39.576Z,15.20
2022-11-02T14:58:18.860Z,15.10
2022-11-02T15:00:53.157Z,15.10
2022-11-02T15:03:28.634Z,15.00
2022-11-02T15:06:10.638Z,15.00
2022-11-02T15:08:54.717Z,15.00
2022-11-02T15:11:45.597Z,15.00
2022-11-02T15:14:36.229Z,15.00
2022-11-02T15:17:27.976Z,14.90
2022-11-02T15:20:32.128Z,14.90
2022-11-02T15:23:14.455Z,14.80
2022-11-02T15:25:55.759Z,14.70
2022-11-02T15:28:32.567Z,14.60
2022-11-02T15:31:14.961Z,14.50
2022-11-02T15:33:53.605Z,14.30
2022-11-02T15:36:31.171Z,14.10
2022-11-02T15:39:09.815Z,14.00
2022-11-02T15:41:54.540Z,13.80
2022-11-02T15:45:26.692Z,13.70
2022-11-02T15:48:28.360Z,13.50
2022-11-02T15:51:26.133Z,13.30
2022-11-02T15:54:46.272Z,13.20
2022-11-02T15:57:54.821Z,13.00
2022-11-02T16:01:06.475Z,12.80
2022-11-02T16:03:58.794Z,12.70
2022-11-02T16:06:38.477Z,12.60
2022-11-02T16:09:42.317Z,12.50
2022-11-02T16:12:20.896Z,12.40
2022-11-02T16:15:10.436Z,12.30
2022-11-02T16:17:50.243Z,12.10
2022-11-02T16:20:25.172Z,12.00
2022-11-02T16:23:13.407Z,12.00
2022-11-02T16:25:56.307Z,11.90
2022-11-02T16:28:34.572Z,11.80
2022-11-02T16:31:17.822Z,11.70
2022-11-02T16:33:57.438Z,11.60
2022-11-02T16:36:36.677Z,11.50
2022-11-02T16:39:25.393Z,11.50
2022-11-02T16:42:02.080Z,11.40
2022-11-02T16:44:41.135Z,11.30
2022-11-02T16:47:14.621Z,11.20
2022-11-02T16:49:51.999Z,11.20
2022-11-02T16:52:35.931Z,11.20
2022-11-02T16:55:30.463Z,11.10
2022-11-02T16:58:21.883Z,11.10
2022-11-02T17:01:01.058Z,11.00
2022-11-02T17:03:34.893Z,10.90
2022-11-02T17:06:07.821Z,10.90
2022-11-02T17:08:41.411Z,10.80
2022-11-02T17:11:21.747Z,10.80
2022-11-02T17:14:00.195Z,10.70
2022-11-02T17:16:34.352Z,10.70
2022-11-02T17:19:26.479Z,10.70
2022-11-02T17:22:25.881Z,10.60
2022-11-02T17:25:27.625Z,10.60
2022-11-02T17:28:24.889Z,10.60
2022-11-02T17:31:24.697Z,10.50
2022-11-02T17:34:15.249Z,10.50
2022-11-02T17:36:50.896Z,10.40
2022-11-02T17:39:23.980Z,10.30
2022-11-02T17:42:17.517Z,10.30
2022-11-02T17:45:39.357Z,10.30
2022-11-02T17:48:12.067Z,10.20
2022-11-02T17:50:46.573Z,10.20
2022-11-02T17:53:19.116Z,10.10
2022-11-02T17:55:56.577Z,10.10
2022-11-02T17:58:29.155Z,10.10
2022-11-02T18:01:03.756Z,10.10
2022-11-02T18:03:36.821Z,10.00
2022-11-02T18:06:09.482Z,10.00
2022-11-02T18:09:00.583Z,9.90
2022-11-02T18:11:50.845Z,9.90
2022-11-02T18:14:23.120Z,9.90
2022-11-02T18:16:55.708Z,9.80
2022-11-02T18:19:28.683Z,9.80
2022-11-02T18:22:03.900Z,9.70
2022-11-02T18:24:36.424Z,9.70
2022-11-02T18:27:08.890Z,9.70
2022-11-02T18:29:41.319Z,9.70
2022-11-02T18:32:13.453Z,9.60
2022-11-02T18:34:45.710Z,9.60
2022-11-02T18:37:18.152Z,9.50
2022-11-02T18:39:50.512Z,9.50
2022-11-02T18:42:22.940Z,9.50
2022-11-02T18:44:55.603Z,9.50
2022-11-02T18:47:29.669Z,9.50
2022-11-02T18:50:04.060Z,9.50
2022-11-02T18:52:42.532Z,9.40
2022-11-02T18:55:21.596Z,9.40
2022-11-02T18:57:55.423Z,9.30
2022-11-02T19:00:28.776Z,9.30
2022-11-02T19:03:01.354Z,9.30
2022-11-02T19:05:52.007Z,9.30
2022-11-02T19:09:03.011Z,9.30
2022-11-02T19:12:04.070Z,9.40
2022-11-02T19:14:42.881Z,9.30
2022-11-02T19:17:17.352Z,9.30
2022-11-02T19:19:50.868Z,9.30
2022-11-02T19:22:26.376Z,9.20
2022-11-02T19:25:01.643Z,9.10
2022-11-02T19:27:36.350Z,9.10
2022-11-02T19:30:10.254Z,9.00
2022-11-02T19:32:42.873Z,9.00
2022-11-02T19:35:15.710Z,8.90
2022-11-02T19:37:48.880Z,8.90
2022-11-02T19:40:22.127Z,8.90
2022-11-02T19:42:57.979Z,8.80
2022-11-02T19:45:30.881Z,8.80
2022-11-02T19:48:03.721Z,8.80
2022-11-02T19:50:39.634Z,8.80
2022-11-02T19:53:15.568Z,8.70
2022-11-02T19:55:55.291Z,8.70
2022-11-02T19:58:29.250Z,8.70
2022-11-02T20:01:29.910Z,8.70
2022-11-02T20:04:05.809Z,8.60
2022-11-02T20:06:41.193Z,8.60
2022-11-02T20:09:19.613Z,8.60
2022-11-02T20:11:52.555Z,8.70
2022-11-02T20:14:25.407Z,8.60
2022-11-02T20:17:25.293Z,8.60
2022-11-02T20:19:53.246Z,8.50
2022-11-02T20:22:29.576Z,8.50
2022-11-02T20:25:03.057Z,8.50
2022-11-02T20:27:38.117Z,8.40
2022-11-02T20:30:12.730Z,8.40
2022-11-02T20:32:46.204Z,8.40
2022-11-02T20:35:24.722Z,8.40
2022-11-02T20:37:58.177Z,8.40
2022-11-02T20:40:35.377Z,8.40
2022-11-02T20:43:12.895Z,8.30
2022-11-02T20:45:45.854Z,8.30
2022-11-02T20:48:20.327Z,8.20
2022-11-02T20:50:53.163Z,8.20
2022-11-02T20:53:29.142Z,8.20
2022-11-02T20:56:02.997Z,8.20
2022-11-02T20:58:36.655Z,8.20
2022-11-02T21:01:11.477Z,8.20
2022-11-02T21:03:47.440Z,8.10
2022-11-02T21:06:20.385Z,8.10
2022-11-02T21:08:53.245Z,8.10
2022-11-02T21:11:44.074Z,8.10
2022-11-02T21:14:36.283Z,8.10
2022-11-02T21:17:08.802Z,8.00
2022-11-02T21:19:41.741Z,8.00
2022-11-02T21:22:14.227Z,7.90
2022-11-02T21:24:47.763Z,7.90
2022-11-02T21:27:23.814Z,7.90
2022-11-02T21:29:56.891Z,7.90
2022-11-02T21:32:29.285Z,7.90
2022-11-02T21:35:01.881Z,7.80
2022-11-02T21:37:35.486Z,7.80
2022-11-02T21:40:09.427Z,7.80
2022-11-02T21:42:42.996Z,7.80
2022-11-02T21:45:18.192Z,7.80
2022-11-02T21:47:51.460Z,7.70
2022-11-02T21:50:24.185Z,7.80
2022-11-02T21:52:56.511Z,7.80
2022-11-02T21:55:28.986Z,7.80
2022-11-02T21:58:01.717Z,7.80
2022-11-02T22:00:52.926Z,7.80
2022-11-02T22:03:46.878Z,7.80
2022-11-02T22:06:21.343Z,7.80
2022-11-02T22:08:53.924Z,7.70
2022-11-02T22:11:27.875Z,7.70
2022-11-02T22:14:01.001Z,7.70
2022-11-02T22:16:35.947Z,7.70
2022-11-02T22:19:15.511Z,7.70
2022-11-02T22:21:49.468Z,7.70
2022-11-02T22:24:21.853Z,7.60
2022-11-02T22:26:54.957Z,7.70
2022-11-02T22:29:27.285Z,7.70
2022-11-02T22:31:59.607Z,7.70
2022-11-02T22:34:32.300Z,7.70
2022-11-02T22:37:22.878Z,7.70
2022-11-02T22:40:14.914Z,7.60
2022-11-02T22:42:47.101Z,7.70
2022-11-02T22:45:24.283Z,7.60
2022-11-02T22:47:56.326Z,7.70
2022-11-02T22:50:28.813Z,7.70
2022-11-02T22:53:00.952Z,7.70
2022-11-02T22:55:33.189Z,7.70
2022-11-02T22:58:05.238Z,7.70
2022-11-02T23:00:37.379Z,7.70
2022-11-02T23:03:10.037Z,7.70
2022-11-02T23:05:43.337Z,7.60
2022-11-02T23:08:15.765Z,7.60
2022-11-02T23:11:13.379Z,7.60
2022-11-02T23:13:54.830Z,7.60
2022-11-02T23:16:36.721Z,7.50
2022-11-02T23:19:27.252Z,7.50
2022-11-02T23:22:27.910Z,7.50
2022-11-02T23:25:19.718Z,7.50
2022-11-02T23:28:16.907Z,7.50
2022-11-02T23:31:28.268Z,7.50
2022-11-02T23:34:20.258Z,7.50
2022-11-02T23:36:52.285Z,7.50
2022-11-02T23:39:42.772Z,7.50
2022-11-02T23:42:23.025Z,7.50
2022-11-02T23:44:55.060Z,7.50
2022-11-02T23:47:49.434Z,7.50
2022-11-02T23:50:49.843Z,7.50
2022-11-02T23:54:00.189Z,7.40
2022-11-02T23:56:51.950Z,7.40
2022-11-02T23:59:30.130Z,7.40
